Time;durP1;ratioP1;P1;durP2;ratioP2;P2;SDS_P1;SDS_P2;PMS_P1;PMS_P2;Temp;Humidity;BMP_temperature;BMP_pressure;BME280_temperature;BME280_humidity;BME280_pressure;Samples;Min_cycle;Max_cycle;Signal;HPM_P1;HPM_P2
2023/08/16 00:00:52;;;;;;;;;;;;;;;;;;4936670;28;19942;-95
2023/08/16 00:03:18;;;;;;;;;;;;;;;;;;4948685;28;19919;-94
2023/08/16 00:05:44;;;;;;;;;;;;;;;;;;4929614;29;19937;-92
2023/08/16 00:08:10;;;;;;;;;;;;;;;;;;4924734;29;20066;-92
2023/08/16 00:10:36;;;;;;;;;;;;;;;;;;4922410;29;20283;-92
2023/08/16 00:13:02;;;;;;;;;;;;;;;;;;4925118;29;20351;-91
2023/08/16 00:15:28;;;;;;;;;;;;;;;;;;4925084;29;19987;-92
2023/08/16 00:17:54;;;;;;;;;;;;;;;;;;4924105;29;19959;-91
2023/08/16 00:20:20;;;;;;;;;;;;;;;;;;4923793;29;19910;-92
2023/08/16 00:22:46;;;;;;;;;;;;;;;;;;4923344;29;19907;-92
2023/08/16 00:25:12;;;;;;;;;;;;;;;;;;4935993;29;19914;-92
2023/08/16 00:27:38;;;;;;;;;;;;;;;;;;4942351;29;20268;-91
2023/08/16 00:30:04;;;;;;;;;;;;;;;;;;4952051;28;19913;-92
2023/08/16 00:32:30;;;;;;;;;;;;;;;;;;4961117;28;19906;-92
2023/08/16 00:34:57;;;;;;;;;;;;;;;;;;4951367;29;19918;-91
2023/08/16 00:37:23;;;;;;;;;;;;;;;;;;4946020;28;20315;-92
2023/08/16 00:39:49;;;;;;;;;;;;;;;;;;4941233;28;19976;-92
2023/08/16 00:42:15;;;;;;;;;;;;;;;;;;4954854;28;20005;-90
2023/08/16 00:44:41;;;;;;;;;;;;;;;;;;4937308;29;19966;-92
2023/08/16 00:47:07;;;;;;;;;;;;;;;;;;4941309;29;19914;-92
2023/08/16 00:49:33;;;;;;;;;;;;;;;;;;4940375;29;19906;-91
2023/08/16 00:51:59;;;;;;;;;;;;;;;;;;4939432;29;19914;-92
2023/08/16 00:54:25;;;;;;;;;;;;;;;;;;4942760;28;19965;-91
2023/08/16 00:56:51;;;;;;;;;;;;;;;;;;4953501;29;19910;-91
2023/08/16 00:59:20;;;;;;;;;;;;;;;;;;4970865;28;19914;-92
2023/08/16 01:01:46;;;;;;;;;;;;;;;;;;4973089;28;19906;-92
2023/08/16 01:04:15;;;;;;;;;;;;;;;;;;5001868;28;20361;-92
2023/08/16 01:06:41;;;;;;;;;;;;;;;;;;4990373;28;19914;-92
2023/08/16 01:09:07;;;;;;;;;;;;;;;;;;4966020;28;20389;-91
2023/08/16 01:11:36;;;;;;;;;;;;;;;;;;4981474;28;19910;-91
2023/08/16 01:14:05;;;;;;;;;;;;;;;;;;4981644;28;19914;-91
2023/08/16 01:16:31;;;;;;;;;;;;;;;;;;4965441;28;19973;-94
2023/08/16 01:18:57;;;;;;;;;;;;;;;;;;4961118;28;19910;-94
2023/08/16 01:21:23;;;;;;;;;;;;;;;;;;4977434;28;19920;-95
2023/08/16 01:23:48;;;;;;;;;;;;;;;;;;4956936;28;20084;-95
2023/08/16 01:26:14;;;;;;;;;;;;;;;;;;4957881;28;19998;-95
2023/08/16 01:28:40;;;;;;;;;;;;;;;;;;4958924;28;20305;-95
2023/08/16 01:31:06;;;;;;;;;;;;;;;;;;4959196;28;19910;-95
2023/08/16 01:33:32;;;;;;;;;;;;;;;;;;4958932;28;19917;-94
2023/08/16 01:35:58;;;;;;;;;;;;;;;;;;4960233;28;19914;-95
2023/08/16 01:38:24;;;;;;;;;;;;;;;;;;4974139;28;19932;-94
2023/08/16 01:40:50;;;;;;;;;;;;;;;;;;4958311;28;19953;-94
2023/08/16 01:43:16;;;;;;;;;;;;;;;;;;4974571;28;19910;-95
2023/08/16 01:45:42;;;;;;;;;;;;;;;;;;4959465;28;19910;-95
2023/08/16 01:48:11;;;;;;;;;;;;;;;;;;4971826;28;19914;-93
2023/08/16 01:50:37;;;;;;;;;;;;;;;;;;4960126;28;20413;-94
2023/08/16 01:53:03;;;;;;;;;;;;;;;;;;4958753;28;19960;-94
2023/08/16 01:55:29;;;;;;;;;;;;;;;;;;4956698;28;20505;-94
2023/08/16 01:57:55;;;;;;;;;;;;;;;;;;4957135;28;19909;-93
2023/08/16 02:00:22;;;;;;;;;;;;;;;;;;4957178;28;19921;-95
2023/08/16 02:02:48;;;;;;;;;;;;;;;;;;4959517;28;19953;-96
2023/08/16 02:05:14;;;;;;;;;;;;;;;;;;4955868;28;19920;-94
2023/08/16 02:07:40;;;;;;;;;;;;;;;;;;4969243;28;19965;-92
2023/08/16 02:10:09;;;;;;;;;;;;;;;;;;4952948;28;19913;-91
2023/08/16 02:12:35;;;;;;;;;;;;;;;;;;4954919;28;19910;-92
2023/08/16 02:15:01;;;;;;;;;;;;;;;;;;4958772;28;19915;-93
2023/08/16 02:17:27;;;;;;;;;;;;;;;;;;4953884;28;19910;-93
2023/08/16 02:19:53;;;;;;;;;;;;;;;;;;4974229;28;20370;-92
2023/08/16 02:22:19;;;;;;;;;;;;;;;;;;4961067;28;19924;-94
2023/08/16 02:24:45;;;;;;;;;;;;;;;;;;4960410;28;20001;-95
2023/08/16 02:27:11;;;;;;;;;;;;;;;;;;4963233;28;20373;-95
2023/08/16 02:29:37;;;;;;;;;;;;;;;;;;4961674;28;19910;-94
2023/08/16 02:32:04;;;;;;;;;;;;;;;;;;4974808;28;19969;-94
2023/08/16 02:34:30;;;;;;;;;;;;;;;;;;4980394;28;19922;-95
2023/08/16 02:37:01;;;;;;;;;;;;;;;;;;4961860;28;19910;-93
2023/08/16 02:39:27;;;;;;;;;;;;;;;;;;4979718;28;19937;-94
2023/08/16 02:41:53;;;;;;;;;;;;;;;;;;4960186;28;19910;-94
2023/08/16 02:44:19;;;;;;;;;;;;;;;;;;4976690;28;19910;-94
2023/08/16 02:46:45;;;;;;;;;;;;;;;;;;4958625;28;19920;-95
2023/08/16 02:49:11;;;;;;;;;;;;;;;;;;4954435;28;19924;-95
2023/08/16 02:51:40;;;;;;;;;;;;;;;;;;4973656;28;20342;-94
2023/08/16 02:54:15;;;;;;;;;;;;;;;;;;4974141;28;19941;-93
2023/08/16 02:56:41;;;;;;;;;;;;;;;;;;4959011;28;19948;-95
2023/08/16 02:59:17;;;;;;;;;;;;;;;;;;4975489;28;19914;-96
2023/08/16 03:01:42;;;;;;;;;;;;;;;;;;4942646;29;20021;-94
2023/08/16 03:04:08;;;;;;;;;;;;;;;;;;4974528;28;19963;-92
2023/08/16 03:06:38;;;;;;;;;;;;;;;;;;4965202;28;19918;-96
2023/08/16 03:09:04;;;;;;;;;;;;;;;;;;4937468;29;19929;-94
2023/08/16 03:11:30;;;;;;;;;;;;;;;;;;4935367;29;20005;-94
2023/08/16 03:13:56;;;;;;;;;;;;;;;;;;4933575;28;19954;-95
2023/08/16 03:16:22;;;;;;;;;;;;;;;;;;4930816;29;20338;-94
2023/08/16 03:18:47;;;;;;;;;;;;;;;;;;4921129;29;20347;-92
2023/08/16 03:21:13;;;;;;;;;;;;;;;;;;4927158;29;19951;-92
2023/08/16 03:23:39;;;;;;;;;;;;;;;;;;4928588;29;19919;-93
2023/08/16 03:26:05;;;;;;;;;;;;;;;;;;4914724;29;19914;-94
2023/08/16 03:28:31;;;;;;;;;;;;;;;;;;4929549;29;20100;-94
2023/08/16 03:30:59;;;;;;;;;;;;;;;;;;4940511;28;19925;-93
2023/08/16 03:33:24;;;;;;;;;;;;;;;;;;4938791;28;20385;-95
2023/08/16 03:35:50;;;;;;;;;;;;;;;;;;4916023;29;19967;-94
2023/08/16 03:38:16;;;;;;;;;;;;;;;;;;4925784;29;19982;-94
2023/08/16 03:40:43;;;;;;;;;;;;;;;;;;4956371;28;19930;-94
2023/08/16 03:43:08;;;;;;;;;;;;;;;;;;4965937;28;19914;-93
2023/08/16 03:45:36;;;;;;;;;;;;;;;;;;4952556;28;19921;-91
2023/08/16 03:48:02;;;;;;;;;;;;;;;;;;4972697;28;19969;-91
2023/08/16 03:50:28;;;;;;;;;;;;;;;;;;4967634;28;19918;-92
2023/08/16 03:52:54;;;;;;;;;;;;;;;;;;4962230;28;19915;-90
2023/08/16 03:55:20;;;;;;;;;;;;;;;;;;4949207;28;19969;-91
2023/08/16 03:57:46;;;;;;;;;;;;;;;;;;4956427;28;19976;-92
2023/08/16 04:00:16;;;;;;;;;;;;;;;;;;4971891;28;19914;-92
2023/08/16 04:02:42;;;;;;;;;;;;;;;;;;4975116;28;20331;-91
2023/08/16 04:05:08;;;;;;;;;;;;;;;;;;4962147;28;19914;-91
2023/08/16 04:07:34;;;;;;;;;;;;;;;;;;4959383;28;19915;-91
2023/08/16 04:10:00;;;;;;;;;;;;;;;;;;4968652;28;19940;-91
2023/08/16 04:12:26;;;;;;;;;;;;;;;;;;4977840;28;19972;-91
2023/08/16 04:14:52;;;;;;;;;;;;;;;;;;4956250;28;19914;-91
2023/08/16 04:17:18;;;;;;;;;;;;;;;;;;4955227;28;19913;-91
2023/08/16 04:19:43;;;;;;;;;;;;;;;;;;4972471;28;20354;-91
2023/08/16 04:22:09;;;;;;;;;;;;;;;;;;4950652;28;19907;-91
2023/08/16 04:24:35;;;;;;;;;;;;;;;;;;4965589;28;19906;-91
2023/08/16 04:27:01;;;;;;;;;;;;;;;;;;4989410;28;19924;-91
2023/08/16 04:29:27;;;;;;;;;;;;;;;;;;4960693;28;19910;-90
2023/08/16 04:31:55;;;;;;;;;;;;;;;;;;4964867;28;19906;-92
2023/08/16 04:34:21;;;;;;;;;;;;;;;;;;4995070;28;19909;-91
2023/08/16 04:36:47;;;;;;;;;;;;;;;;;;4982706;28;19917;-92
2023/08/16 04:39:13;;;;;;;;;;;;;;;;;;4979246;28;20343;-92
2023/08/16 04:41:39;;;;;;;;;;;;;;;;;;4977887;28;19914;-93
2023/08/16 04:44:04;;;;;;;;;;;;;;;;;;4963997;28;19914;-91
2023/08/16 04:46:30;;;;;;;;;;;;;;;;;;4979558;28;19946;-92
2023/08/16 04:48:56;;;;;;;;;;;;;;;;;;4963748;28;19913;-91
2023/08/16 04:51:22;;;;;;;;;;;;;;;;;;4965935;28;19909;-92
2023/08/16 04:53:49;;;;;;;;;;;;;;;;;;4962878;28;19956;-91
2023/08/16 04:56:15;;;;;;;;;;;;;;;;;;4963336;28;20409;-95
2023/08/16 04:58:41;;;;;;;;;;;;;;;;;;4972616;28;19949;-96
2023/08/16 05:01:13;;;;;;;;;;;;;;;;;;4957114;28;19960;-95
2023/08/16 05:03:39;;;;;;;;;;;;;;;;;;4968851;28;19918;-94
2023/08/16 05:06:08;;;;;;;;;;;;;;;;;;4955014;28;20370;-95
2023/08/16 05:08:34;;;;;;;;;;;;;;;;;;4950674;28;19922;-95
2023/08/16 05:11:00;;;;;;;;;;;;;;;;;;4957218;28;19910;-95
2023/08/16 05:13:26;;;;;;;;;;;;;;;;;;4955021;28;19960;-96
2023/08/16 05:15:52;;;;;;;;;;;;;;;;;;4958106;28;19915;-93
2023/08/16 05:18:18;;;;;;;;;;;;;;;;;;4950694;28;19918;-94
2023/08/16 05:20:44;;;;;;;;;;;;;;;;;;4969394;28;19964;-95
2023/08/16 05:23:10;;;;;;;;;;;;;;;;;;4968743;28;19921;-94
2023/08/16 05:25:37;;;;;;;;;;;;;;;;;;4960898;28;19917;-94
2023/08/16 05:28:03;;;;;;;;;;;;;;;;;;4949180;28;20064;-94
2023/08/16 05:30:29;;;;;;;;;;;;;;;;;;4955670;28;20009;-94
2023/08/16 05:32:55;;;;;;;;;;;;;;;;;;4972640;28;20430;-96
2023/08/16 05:35:21;;;;;;;;;;;;;;;;;;4955583;28;19959;-95
2023/08/16 05:37:48;;;;;;;;;;;;;;;;;;4970790;28;19960;-94
2023/08/16 05:40:14;;;;;;;;;;;;;;;;;;4973173;28;19918;-96
2023/08/16 05:42:40;;;;;;;;;;;;;;;;;;4957966;28;19921;-96
2023/08/16 05:45:06;;;;;;;;;;;;;;;;;;4954565;28;20279;-94
2023/08/16 05:47:32;;;;;;;;;;;;;;;;;;4953422;28;19924;-95
2023/08/16 05:49:58;;;;;;;;;;;;;;;;;;4958669;28;19918;-95
2023/08/16 05:52:24;;;;;;;;;;;;;;;;;;4953730;28;20029;-94
2023/08/16 05:54:50;;;;;;;;;;;;;;;;;;4956341;28;19910;-95
2023/08/16 05:57:16;;;;;;;;;;;;;;;;;;4968796;28;20655;-93
2023/08/16 05:59:42;;;;;;;;;;;;;;;;;;4953971;28;19993;-92
2023/08/16 06:02:08;;;;;;;;;;;;;;;;;;4957618;28;20457;-92
2023/08/16 06:04:34;;;;;;;;;;;;;;;;;;4957698;28;19917;-91
2023/08/16 06:07:00;;;;;;;;;;;;;;;;;;4957946;28;19918;-91
2023/08/16 06:09:30;;;;;;;;;;;;;;;;;;4971247;28;19910;-92
2023/08/16 06:11:56;;;;;;;;;;;;;;;;;;4970833;28;19945;-92
2023/08/16 06:14:22;;;;;;;;;;;;;;;;;;4967425;28;19914;-91
2023/08/16 06:16:47;;;;;;;;;;;;;;;;;;4959860;28;19910;-90
2023/08/16 06:19:15;;;;;;;;;;;;;;;;;;4969849;28;19918;-91
2023/08/16 06:21:41;;;;;;;;;;;;;;;;;;4970899;28;19921;-89
2023/08/16 06:24:08;;;;;;;;;;;;;;;;;;4955462;28;19914;-90
2023/08/16 06:26:34;;;;;;;;;;;;;;;;;;4957193;28;19910;-89
2023/08/16 06:29:00;;;;;;;;;;;;;;;;;;4971469;28;19921;-89
2023/08/16 06:31:26;;;;;;;;;;;;;;;;;;4954667;28;19942;-91
2023/08/16 06:33:52;;;;;;;;;;;;;;;;;;4955972;28;20285;-91
2023/08/16 06:36:19;;;;;;;;;;;;;;;;;;4971579;28;19942;-91
2023/08/16 06:38:45;;;;;;;;;;;;;;;;;;4953328;28;19997;-91
2023/08/16 06:41:12;;;;;;;;;;;;;;;;;;4955336;28;19918;-91
2023/08/16 06:43:38;;;;;;;;;;;;;;;;;;4955080;28;19914;-91
2023/08/16 06:46:04;;;;;;;;;;;;;;;;;;4970234;28;19922;-90
2023/08/16 06:48:31;;;;;;;;;;;;;;;;;;4968843;28;20005;-91
2023/08/16 06:50:57;;;;;;;;;;;;;;;;;;4969546;28;19910;-91
2023/08/16 06:53:23;;;;;;;;;;;;;;;;;;4948862;28;19953;-91
2023/08/16 06:55:52;;;;;;;;;;;;;;;;;;4954255;28;19921;-90
2023/08/16 06:58:18;;;;;;;;;;;;;;;;;;4948535;28;20010;-91
2023/08/16 07:00:45;;;;;;;;;;;;;;;;;;4971945;28;19965;-91
2023/08/16 07:03:11;;;;;;;;;;;;;;;;;;4968706;28;20263;-92
2023/08/16 07:05:37;;;;;;;;;;;;;;;;;;4959773;28;19921;-91
2023/08/16 07:08:03;;;;;;;;;;;;;;;;;;4957926;28;19929;-91
2023/08/16 07:10:29;;;;;;;;;;;;;;;;;;4971834;28;19924;-91
2023/08/16 07:12:55;;;;;;;;;;;;;;;;;;4968999;28;20381;-91
2023/08/16 07:15:24;;;;;;;;;;;;;;;;;;4959468;28;19914;-92
2023/08/16 07:17:50;;;;;;;;;;;;;;;;;;4953805;28;19918;-93
2023/08/16 07:20:16;;;;;;;;;;;;;;;;;;4959691;28;19919;-93
2023/08/16 07:22:43;;;;;;;;;;;;;;;;;;4955907;28;19918;-94
2023/08/16 07:25:13;;;;;;;;;;;;;;;;;;4955946;28;20184;-94
2023/08/16 07:27:39;;;;;;;;;;;;;;;;;;4955555;28;19957;-92
2023/08/16 07:30:05;;;;;;;;;;;;;;;;;;4955050;28;19910;-93
2023/08/16 07:32:31;;;;;;;;;;;;;;;;;;4969716;28;19922;-94
2023/08/16 07:34:57;;;;;;;;;;;;;;;;;;4954688;28;19917;-94
2023/08/16 07:37:23;;;;;;;;;;;;;;;;;;4970282;28;20333;-93
2023/08/16 07:39:52;;;;;;;;;;;;;;;;;;4956613;28;19933;-93
2023/08/16 07:42:18;;;;;;;;;;;;;;;;;;4953515;28;19918;-91
2023/08/16 07:44:45;;;;;;;;;;;;;;;;;;4968433;28;19969;-91
2023/08/16 07:47:11;;;;;;;;;;;;;;;;;;4965234;28;20393;-91
2023/08/16 07:49:37;;;;;;;;;;;;;;;;;;4955098;28;19910;-91
2023/08/16 07:52:03;;;;;;;;;;;;;;;;;;4969062;28;19910;-91
2023/08/16 07:54:32;;;;;;;;;;;;;;;;;;4954789;28;19921;-92
2023/08/16 07:56:58;;;;;;;;;;;;;;;;;;4952372;28;19910;-91
2023/08/16 07:59:24;;;;;;;;;;;;;;;;;;4956956;28;20354;-91
2023/08/16 08:01:51;;;;;;;;;;;;;;;;;;4973811;28;19917;-91
2023/08/16 08:04:18;;;;;;;;;;;;;;;;;;4974370;28;19913;-91
2023/08/16 08:06:44;;;;;;;;;;;;;;;;;;4959838;28;19932;-91
2023/08/16 08:09:10;;;;;;;;;;;;;;;;;;4959219;28;19964;-91
2023/08/16 08:11:36;;;;;;;;;;;;;;;;;;4967840;28;20095;-92
2023/08/16 08:14:02;;;;;;;;;;;;;;;;;;4953668;28;20036;-91
2023/08/16 08:16:28;;;;;;;;;;;;;;;;;;4953673;28;19910;-91
2023/08/16 08:18:54;;;;;;;;;;;;;;;;;;4955375;28;19918;-91
2023/08/16 08:21:20;;;;;;;;;;;;;;;;;;4954005;28;19921;-91
2023/08/16 08:23:49;;;;;;;;;;;;;;;;;;4955435;28;19914;-91
2023/08/16 08:26:15;;;;;;;;;;;;;;;;;;4955740;28;19926;-90
2023/08/16 08:28:42;;;;;;;;;;;;;;;;;;4952442;28;19922;-91
2023/08/16 08:31:08;;;;;;;;;;;;;;;;;;4955612;28;19914;-91
2023/08/16 08:33:34;;;;;;;;;;;;;;;;;;4962732;28;19910;-92
2023/08/16 08:36:03;;;;;;;;;;;;;;;;;;4974927;28;19917;-93
2023/08/16 08:38:30;;;;;;;;;;;;;;;;;;4961959;28;19949;-91
2023/08/16 08:40:56;;;;;;;;;;;;;;;;;;4974001;28;20866;-92
2023/08/16 08:43:22;;;;;;;;;;;;;;;;;;4966014;28;20761;-91
2023/08/16 08:45:50;;;;;;;;;;;;;;;;;;4979325;28;19914;-89
2023/08/16 08:48:17;;;;;;;;;;;;;;;;;;4978244;28;19921;-90
2023/08/16 08:50:49;;;;;;;;;;;;;;;;;;4980224;28;19954;-91
2023/08/16 08:53:20;;;;;;;;;;;;;;;;;;4963513;28;20407;-91
2023/08/16 08:55:46;;;;;;;;;;;;;;;;;;4959556;28;19910;-92
2023/08/16 08:58:13;;;;;;;;;;;;;;;;;;4965902;28;20450;-91
2023/08/16 09:00:39;;;;;;;;;;;;;;;;;;4961196;28;19973;-91
2023/08/16 09:03:06;;;;;;;;;;;;;;;;;;4966206;28;19917;-91
2023/08/16 09:05:38;;;;;;;;;;;;;;;;;;4979055;28;19941;-91
2023/08/16 09:08:05;;;;;;;;;;;;;;;;;;4972425;28;19942;-92
2023/08/16 09:10:30;;;;;;;;;;;;;;;;;;4965526;28;19941;-91
2023/08/16 09:12:57;;;;;;;;;;;;;;;;;;4952894;28;19921;-91
2023/08/16 09:15:23;;;;;;;;;;;;;;;;;;4955875;28;20234;-91
2023/08/16 09:17:50;;;;;;;;;;;;;;;;;;4957095;28;19917;-91
2023/08/16 09:20:17;;;;;;;;;;;;;;;;;;4951749;28;19937;-91
2023/08/16 09:22:43;;;;;;;;;;;;;;;;;;4969118;28;19929;-90
2023/08/16 09:25:10;;;;;;;;;;;;;;;;;;4955102;28;19914;-91
2023/08/16 09:27:36;;;;;;;;;;;;;;;;;;4955483;28;20509;-91
2023/08/16 09:30:02;;;;;;;;;;;;;;;;;;4954155;28;19913;-91
2023/08/16 09:32:28;;;;;;;;;;;;;;;;;;4958091;28;20279;-91
2023/08/16 09:34:54;;;;;;;;;;;;;;;;;;4976602;28;19933;-91
2023/08/16 09:37:20;;;;;;;;;;;;;;;;;;4973031;28;19917;-90
2023/08/16 09:39:46;;;;;;;;;;;;;;;;;;4953445;28;19925;-90
2023/08/16 09:42:18;;;;;;;;;;;;;;;;;;4949489;28;19960;-90
2023/08/16 09:45:01;;;;;;;;;;;;;;;;;;;;;
2023/08/16 09:47:30;;;;;;;;;;;;;;;;;;4922459;28;19918;-90
2023/08/16 09:49:56;;;;;;;;;;;;;;;;;;4953896;28;19917;-90
2023/08/16 09:52:22;;;;;;;;;;;;;;;;;;4956465;28;20004;-90
2023/08/16 09:57:33;;;;;;;;;;;;;;;;;;4980319;28;19920;-90
2023/08/16 10:00:08;;;;;;;;;;;;;;;;;;4966298;28;19987;-90
2023/08/16 10:02:34;;;;;;;;;;;;;;;;;;4962107;28;19914;-91
2023/08/16 10:05:12;;;;;;;;;;;;;;;;;;4954925;28;19920;-89
2023/08/16 10:07:38;;;;;;;;;;;;;;;;;;4973844;28;20378;-89
2023/08/16 10:10:04;;;;;;;;;;;;;;;;;;4959180;28;19910;-89
2023/08/16 10:12:36;;;;;;;;;;;;;;;;;;4963335;28;19957;-89
2023/08/16 10:15:02;;;;;;;;;;;;;;;;;;4957782;28;19921;-90
2023/08/16 10:17:28;;;;;;;;;;;;;;;;;;4973095;28;19910;-89
2023/08/16 10:20:01;;;;;;;;;;;;;;;;;;4977610;28;20442;-89
2023/08/16 10:22:27;;;;;;;;;;;;;;;;;;4964362;28;19906;-90
2023/08/16 10:25:02;;;;;;;;;;;;;;;;;;4963524;28;20306;-90
2023/08/16 10:27:28;;;;;;;;;;;;;;;;;;4962727;28;20353;-88
2023/08/16 10:29:54;;;;;;;;;;;;;;;;;;4962990;28;19914;-89
2023/08/16 10:32:24;;;;;;;;;;;;;;;;;;4957968;28;20117;-89
2023/08/16 10:34:54;;;;;;;;;;;;;;;;;;4959371;28;20025;-88
2023/08/16 10:37:25;;;;;;;;;;;;;;;;;;4956282;28;19906;-88
2023/08/16 10:39:51;;;;;;;;;;;;;;;;;;4980127;28;19937;-89
2023/08/16 10:42:26;;;;;;;;;;;;;;;;;;4978701;28;19910;-87
2023/08/16 10:44:52;;;;;;;;;;;;;;;;;;4957026;28;19913;-90
2023/08/16 10:47:18;;;;;;;;;;;;;;;;;;4981972;28;19925;-89
2023/08/16 10:49:44;;;;;;;;;;;;;;;;;;4965372;28;20376;-89
2023/08/16 10:52:10;;;;;;;;;;;;;;;;;;4982605;28;19949;-89
2023/08/16 10:54:36;;;;;;;;;;;;;;;;;;4960793;28;19925;-90
2023/08/16 10:57:05;;;;;;;;;;;;;;;;;;4981201;28;19913;-89
2023/08/16 10:59:48;;;;;;;;;;;;;;;;;;4980953;28;19953;-90
2023/08/16 11:02:18;;;;;;;;;;;;;;;;;;4970592;28;19922;-89
2023/08/16 11:04:46;;;;;;;;;;;;;;;;;;4977873;28;19981;-90
2023/08/16 11:07:12;;;;;;;;;;;;;;;;;;4958571;28;20213;-89
2023/08/16 11:09:41;;;;;;;;;;;;;;;;;;4961724;28;19954;-89
2023/08/16 11:12:08;;;;;;;;;;;;;;;;;;4960803;28;19914;-89
2023/08/16 11:14:43;;;;;;;;;;;;;;;;;;4983866;28;19958;-89
2023/08/16 11:17:09;;;;;;;;;;;;;;;;;;4968980;28;19964;-89
2023/08/16 11:19:46;;;;;;;;;;;;;;;;;;4958916;28;19918;-88
2023/08/16 11:22:15;;;;;;;;;;;;;;;;;;4975977;28;19918;-89
2023/08/16 11:24:40;;;;;;;;;;;;;;;;;;4956987;28;19965;-89
2023/08/16 11:27:15;;;;;;;;;;;;;;;;;;4957312;28;20251;-89
2023/08/16 11:29:48;;;;;;;;;;;;;;;;;;4960336;28;19932;-89
2023/08/16 11:32:14;;;;;;;;;;;;;;;;;;4963591;28;19961;-91
2023/08/16 11:34:40;;;;;;;;;;;;;;;;;;4965942;28;19922;-90
2023/08/16 11:37:06;;;;;;;;;;;;;;;;;;4956125;28;19920;-92
2023/08/16 11:39:36;;;;;;;;;;;;;;;;;;4958183;28;19917;-91
2023/08/16 11:42:03;;;;;;;;;;;;;;;;;;4976801;28;20406;-91
2023/08/16 11:44:29;;;;;;;;;;;;;;;;;;4956746;28;19920;-90
2023/08/16 11:46:58;;;;;;;;;;;;;;;;;;4975212;28;19918;-90
2023/08/16 11:49:24;;;;;;;;;;;;;;;;;;4946073;28;20422;-90
2023/08/16 11:51:50;;;;;;;;;;;;;;;;;;4960497;28;19924;-90
2023/08/16 11:54:17;;;;;;;;;;;;;;;;;;4950168;28;19914;-90
2023/08/16 11:56:43;;;;;;;;;;;;;;;;;;4948261;28;19972;-87
2023/08/16 11:59:10;;;;;;;;;;;;;;;;;;4947570;28;19917;-92
2023/08/16 12:01:37;;;;;;;;;;;;;;;;;;4965817;28;19926;-89
2023/08/16 12:04:34;;;;;;;;;;;;;;;;;;;;;
2023/08/16 12:06:49;;;;;;;;;;;;;;;;;;4967983;28;19980;-89
2023/08/16 12:09:16;;;;;;;;;;;;;;;;;;4956067;28;19954;-89
2023/08/16 12:11:42;;;;;;;;;;;;;;;;;;4965933;28;20976;-88
2023/08/16 12:14:07;;;;;;;;;;;;;;;;;;4939493;28;20012;-87
2023/08/16 12:16:33;;;;;;;;;;;;;;;;;;4953861;28;19960;-89
2023/08/16 12:18:59;;;;;;;;;;;;;;;;;;4967898;28;19910;-90
2023/08/16 12:21:26;;;;;;;;;;;;;;;;;;4965993;28;19914;-89
2023/08/16 12:23:52;;;;;;;;;;;;;;;;;;4968198;28;20350;-88
2023/08/16 12:26:18;;;;;;;;;;;;;;;;;;4943613;28;19910;-89
2023/08/16 12:28:44;;;;;;;;;;;;;;;;;;4967022;28;19914;-88
2023/08/16 12:31:10;;;;;;;;;;;;;;;;;;4951102;28;20167;-87
2023/08/16 12:33:41;;;;;;;;;;;;;;;;;;4969075;28;20418;-89
2023/08/16 12:36:07;;;;;;;;;;;;;;;;;;4966251;28;20294;-88
2023/08/16 12:38:32;;;;;;;;;;;;;;;;;;4974462;28;19910;-89
2023/08/16 12:41:01;;;;;;;;;;;;;;;;;;4959116;28;19914;-88
2023/08/16 12:43:28;;;;;;;;;;;;;;;;;;4966255;28;19911;-90
2023/08/16 12:45:54;;;;;;;;;;;;;;;;;;4951516;28;23120;-87
2023/08/16 12:48:19;;;;;;;;;;;;;;;;;;4951966;28;20052;-89
2023/08/16 12:50:45;;;;;;;;;;;;;;;;;;4956389;28;19910;-90
2023/08/16 12:53:11;;;;;;;;;;;;;;;;;;4968760;28;19911;-90
2023/08/16 12:55:37;;;;;;;;;;;;;;;;;;4950386;28;20042;-90
2023/08/16 12:58:04;;;;;;;;;;;;;;;;;;4972287;28;20012;-91
2023/08/16 13:00:30;;;;;;;;;;;;;;;;;;4957273;28;20354;-90
2023/08/16 13:02:57;;;;;;;;;;;;;;;;;;4960216;28;19918;-89
2023/08/16 13:05:24;;;;;;;;;;;;;;;;;;4972469;28;19921;-90
2023/08/16 13:07:50;;;;;;;;;;;;;;;;;;4958789;28;20413;-90
2023/08/16 13:10:16;;;;;;;;;;;;;;;;;;4959319;28;20020;-90
2023/08/16 13:12:42;;;;;;;;;;;;;;;;;;4972023;28;19914;-90
2023/08/16 13:15:08;;;;;;;;;;;;;;;;;;4968927;28;19919;-91
2023/08/16 13:17:34;;;;;;;;;;;;;;;;;;4956236;28;20293;-90
2023/08/16 13:20:00;;;;;;;;;;;;;;;;;;4957151;28;19918;-90
2023/08/16 13:22:26;;;;;;;;;;;;;;;;;;4959659;28;19914;-90
2023/08/16 13:24:52;;;;;;;;;;;;;;;;;;4975820;28;20262;-90
2023/08/16 13:27:18;;;;;;;;;;;;;;;;;;4974556;28;20294;-89
2023/08/16 13:29:53;;;;;;;;;;;;;;;;;;4961138;28;20587;-90
2023/08/16 13:32:22;;;;;;;;;;;;;;;;;;4946031;28;20028;-90
2023/08/16 13:34:48;;;;;;;;;;;;;;;;;;4938686;28;20076;-88
2023/08/16 13:37:14;;;;;;;;;;;;;;;;;;4955106;28;20316;-88
2023/08/16 13:39:40;;;;;;;;;;;;;;;;;;4943810;28;19918;-89
2023/08/16 13:42:06;;;;;;;;;;;;;;;;;;4948464;28;19914;-88
2023/08/16 13:44:32;;;;;;;;;;;;;;;;;;4948307;28;20003;-88
2023/08/16 13:46:58;;;;;;;;;;;;;;;;;;4965552;28;19922;-89
2023/08/16 13:49:24;;;;;;;;;;;;;;;;;;4944137;28;19929;-92
2023/08/16 13:51:53;;;;;;;;;;;;;;;;;;4971916;28;19914;-93
2023/08/16 13:54:19;;;;;;;;;;;;;;;;;;4951770;28;19921;-91
2023/08/16 13:56:47;;;;;;;;;;;;;;;;;;4970194;28;19910;-92
2023/08/16 13:59:13;;;;;;;;;;;;;;;;;;4971575;28;20297;-91
2023/08/16 14:01:39;;;;;;;;;;;;;;;;;;4960668;28;19914;-91
2023/08/16 14:04:05;;;;;;;;;;;;;;;;;;4958387;28;19914;-94
2023/08/16 14:06:31;;;;;;;;;;;;;;;;;;4958333;28;19910;-92
2023/08/16 14:08:57;;;;;;;;;;;;;;;;;;4956074;28;19929;-91
2023/08/16 14:11:26;;;;;;;;;;;;;;;;;;4960532;28;19937;-91
2023/08/16 14:13:55;;;;;;;;;;;;;;;;;;4951610;28;19914;-91
2023/08/16 14:16:21;;;;;;;;;;;;;;;;;;4960633;28;19961;-92
2023/08/16 14:18:47;;;;;;;;;;;;;;;;;;4958063;28;19933;-93
2023/08/16 14:21:13;;;;;;;;;;;;;;;;;;4958752;28;19910;-93
2023/08/16 14:23:39;;;;;;;;;;;;;;;;;;4952727;28;20207;-92
2023/08/16 14:26:22;;;;;;;;;;;;;;;;;;4956239;28;19914;-93
2023/08/16 14:28:49;;;;;;;;;;;;;;;;;;4957595;28;19957;-93
2023/08/16 14:31:15;;;;;;;;;;;;;;;;;;4970386;28;20037;-93
2023/08/16 14:33:41;;;;;;;;;;;;;;;;;;4973133;28;20273;-93
2023/08/16 14:36:07;;;;;;;;;;;;;;;;;;4957778;28;19910;-93
2023/08/16 14:38:33;;;;;;;;;;;;;;;;;;4959442;28;19917;-92
2023/08/16 14:40:59;;;;;;;;;;;;;;;;;;4953653;28;19910;-93
2023/08/16 14:43:28;;;;;;;;;;;;;;;;;;4952873;28;19921;-92
2023/08/16 14:45:54;;;;;;;;;;;;;;;;;;4959449;28;19943;-93
2023/08/16 14:48:20;;;;;;;;;;;;;;;;;;4954016;28;20685;-94
2023/08/16 14:50:45;;;;;;;;;;;;;;;;;;4958536;28;21082;-93
2023/08/16 14:53:13;;;;;;;;;;;;;;;;;;4961051;28;20005;-92
2023/08/16 14:55:39;;;;;;;;;;;;;;;;;;4955593;28;19910;-93
2023/08/16 14:58:05;;;;;;;;;;;;;;;;;;4958023;28;20351;-92
2023/08/16 15:00:31;;;;;;;;;;;;;;;;;;4953900;28;19917;-91
2023/08/16 15:02:57;;;;;;;;;;;;;;;;;;4957125;28;19914;-92
2023/08/16 15:05:23;;;;;;;;;;;;;;;;;;4948325;28;19913;-92
2023/08/16 15:07:53;;;;;;;;;;;;;;;;;;4948648;28;19922;-91
2023/08/16 15:10:19;;;;;;;;;;;;;;;;;;4951536;28;20399;-92
2023/08/16 15:12:45;;;;;;;;;;;;;;;;;;4953496;28;19914;-92
2023/08/16 15:15:14;;;;;;;;;;;;;;;;;;4949210;28;19910;-92
2023/08/16 15:17:40;;;;;;;;;;;;;;;;;;4948523;28;20144;-91
2023/08/16 15:20:09;;;;;;;;;;;;;;;;;;4966430;28;19914;-93
2023/08/16 15:22:36;;;;;;;;;;;;;;;;;;4948285;28;19910;-91
2023/08/16 15:25:01;;;;;;;;;;;;;;;;;;4950198;28;19921;-90
2023/08/16 15:27:27;;;;;;;;;;;;;;;;;;4964375;28;20691;-90
2023/08/16 15:29:53;;;;;;;;;;;;;;;;;;4951188;28;20036;-90
2023/08/16 15:32:20;;;;;;;;;;;;;;;;;;4966143;28;19912;-92
2023/08/16 15:34:52;;;;;;;;;;;;;;;;;;4953389;28;19910;-90
2023/08/16 15:37:19;;;;;;;;;;;;;;;;;;4963917;28;19918;-91
2023/08/16 15:39:54;;;;;;;;;;;;;;;;;;4948055;28;20201;-89
2023/08/16 15:42:20;;;;;;;;;;;;;;;;;;4967121;28;19981;-90
2023/08/16 15:44:46;;;;;;;;;;;;;;;;;;4965620;28;20126;-90
2023/08/16 15:47:12;;;;;;;;;;;;;;;;;;4969787;28;20166;-90
2023/08/16 15:49:38;;;;;;;;;;;;;;;;;;4946726;28;20136;-89
2023/08/16 15:52:04;;;;;;;;;;;;;;;;;;4951500;28;19914;-90
2023/08/16 15:54:30;;;;;;;;;;;;;;;;;;4963624;28;19910;-90
2023/08/16 15:56:56;;;;;;;;;;;;;;;;;;4962126;28;20154;-90
2023/08/16 15:59:22;;;;;;;;;;;;;;;;;;4965424;28;19961;-90
2023/08/16 16:01:48;;;;;;;;;;;;;;;;;;4960925;28;20573;-90
2023/08/16 16:04:14;;;;;;;;;;;;;;;;;;4968897;28;20152;-90
2023/08/16 16:06:40;;;;;;;;;;;;;;;;;;4969340;28;20432;-89
2023/08/16 16:09:06;;;;;;;;;;;;;;;;;;4950213;28;20322;-91
2023/08/16 16:11:32;;;;;;;;;;;;;;;;;;4948463;28;19921;-90
2023/08/16 16:14:04;;;;;;;;;;;;;;;;;;4951436;28;19910;-89
2023/08/16 16:16:30;;;;;;;;;;;;;;;;;;4947886;28;20366;-90
2023/08/16 16:18:56;;;;;;;;;;;;;;;;;;4951252;28;19934;-90
2023/08/16 16:21:22;;;;;;;;;;;;;;;;;;4948243;28;20453;-90
2023/08/16 16:23:51;;;;;;;;;;;;;;;;;;4969012;28;19910;-90
2023/08/16 16:26:17;;;;;;;;;;;;;;;;;;4952972;28;19906;-90
2023/08/16 16:28:43;;;;;;;;;;;;;;;;;;4949712;28;19957;-90
2023/08/16 16:31:09;;;;;;;;;;;;;;;;;;4956182;28;20012;-92
2023/08/16 16:33:35;;;;;;;;;;;;;;;;;;4973966;28;20390;-90
2023/08/16 16:36:01;;;;;;;;;;;;;;;;;;4969362;28;20041;-90
2023/08/16 16:38:27;;;;;;;;;;;;;;;;;;4954605;28;19998;-91
2023/08/16 16:40:53;;;;;;;;;;;;;;;;;;4956007;28;19997;-90
2023/08/16 16:43:19;;;;;;;;;;;;;;;;;;4959913;28;20410;-90
2023/08/16 16:45:45;;;;;;;;;;;;;;;;;;4956876;28;19910;-91